Alice Town, Bahamas

1:26 PM EDT on September 02, 2015 (GMT -0400)
IBIMINIA2 | | Change Station
CLOSE
Current Station
Personal Weather Station
Location: Alice Town, BIMINI
Elevation: 0 ft
Nearby Weather Stations

Elev 0 ft 25.73 °N, 79.30 °W | Updated 6 minutes ago

Heavy Rain
Heavy Rain
90.2 °F
Feels Like 106 °F
N
0.0
Wind Variable Wind from WNW

Today
High -- | Low -- °F
--% Chance of Precip.
Yesterday
High -- | Low -- °F
Precip. -- in
6:57 AM 7:35 PM
Waning Gibbous, 78% visible
Pressure 30.08 in
Visibility 1.0 miles
Clouds Overcast 2500 ft
Heat Index 106 °F
Dew Point 79 °F
Humidity 69%
Rainfall 0.00 in
Snow Depth Not available.
UV 4 out of 12
Pollen Not available.
Air Quality Not available.
Flu Activity Not available.
SPECI KMIA 021720Z 05012KT 1SM +RA OVC025CB 28/26 A3008 RMK AO2 RAB11 CB OHD AND ALQDS MOV STNRY P0004 T02780256
Pressure 30.08 in
Visibility 1.0 miles
Clouds Overcast 2500 ft
Heat Index 106 °F
Dew Point 79 °F
Humidity 69%
Rainfall 0.00 in
Snow Depth Not available.
UV 4 out of 12
Pollen Not available.
Air Quality Not available.
Flu Activity Not available.
SPECI KMIA 021720Z 05012KT 1SM +RA OVC025CB 28/26 A3008 RMK AO2 RAB11 CB OHD AND ALQDS MOV STNRY P0004 T02780256

10-Day Weather Forecast

×

Almanac

Astronomy

Sep. 02, 2015 Rise Set
Actual Time
Civil Twilight
Nautical Twilight
Astronomical Twilight
Moon
Length of Visible Light
Length of Day
Tomorrow will be .
, % of the Moon is Illuminated

Today's Extremes

Country Highs Country Lows

Community

WunderPhotos

Upload Photos

1,851,785 photos uploaded!

WunderBlogs® & News

Nearby

Air Quality

  Air Quality AQ Index Pollutant
Not available.

Snow Depth

Station Depth Elevation

Earthquake Activity

City Distance Mag. Time & Date
Minimum magnitude displayed is 2.5.

Coastal Water Temperatures

Place Temperature

Stations

Nearby Weather Stations

Station Location Temp. Windchill Dew Point Humidity Wind Precip. Elev Updated Type